Time;durP1;ratioP1;P1;durP2;ratioP2;P2;SDS_P1;SDS_P2;PMS_P1;PMS_P2;Temp;Humidity;BMP_temperature;BMP_pressure;BME280_temperature;BME280_humidity;BME280_pressure;Samples;Min_cycle;Max_cycle;Signal;HPM_P1;HPM_P2
2022/02/28 00:01:25;;;;;;;18.67;10.37;;;;;;;-3.49;76.94;101801.53;1719259;82;21558;-67
2022/02/28 00:03:52;;;;;;;29.27;11.30;;;;;;;-3.45;77.04;101794.87;1720931;82;21064;-67
2022/02/28 00:06:19;;;;;;;25.10;12.00;;;;;;;-3.43;77.06;101799.23;1718436;82;21590;-69
2022/02/28 00:08:47;;;;;;;25.80;12.98;;;;;;;-3.43;76.88;101804.34;1720045;82;20914;-67
2022/02/28 00:11:14;;;;;;;29.32;11.65;;;;;;;-3.45;77.03;101803.39;1718748;81;21431;-67
2022/02/28 00:13:41;;;;;;;33.05;13.55;;;;;;;-3.48;76.98;101804.55;1716299;81;20997;-67
2022/02/28 00:16:08;;;;;;;26.93;13.35;;;;;;;-3.53;76.97;101807.30;1720479;82;20998;-67
2022/02/28 00:18:35;;;;;;;33.63;15.23;;;;;;;-3.57;77.01;101801.60;1699095;82;20969;-67
2022/02/28 00:21:02;;;;;;;26.33;13.35;;;;;;;-3.63;77.07;101788.58;1721271;82;21570;-67
2022/02/28 00:23:28;;;;;;;28.60;11.33;;;;;;;-3.62;77.23;101791.59;1720381;81;21076;-67
2022/02/28 00:25:55;;;;;;;30.53;12.73;;;;;;;-3.62;77.20;101789.03;1697580;83;21090;-67
2022/02/28 00:28:22;;;;;;;27.58;11.63;;;;;;;-3.61;77.37;101795.91;1700987;84;21005;-67
2022/02/28 00:30:49;;;;;;;31.95;13.53;;;;;;;-3.59;77.38;101789.16;1685017;83;21059;-67
2022/02/28 00:33:16;;;;;;;36.50;16.97;;;;;;;-3.58;77.41;101789.66;1685712;83;21021;-67
2022/02/28 00:35:43;;;;;;;32.67;15.70;;;;;;;-3.60;77.42;101791.26;1684305;83;22323;-67
2022/02/28 00:38:10;;;;;;;32.08;15.10;;;;;;;-3.62;77.36;101787.75;1691628;83;21005;-67
2022/02/28 00:40:37;;;;;;;37.25;17.57;;;;;;;-3.69;77.37;101788.31;1688318;83;21014;-67
2022/02/28 00:43:04;;;;;;;35.68;17.30;;;;;;;-3.77;77.45;101788.38;1688351;83;21066;-67
2022/02/28 00:45:31;;;;;;;42.90;16.55;;;;;;;-3.83;77.55;101787.30;1679909;83;21080;-67
2022/02/28 00:47:57;;;;;;;29.92;14.73;;;;;;;-3.88;77.56;101788.77;1683135;83;22245;-67
2022/02/28 00:50:30;;;;;;;36.10;15.73;;;;;;;-3.92;77.66;101783.45;1713044;81;21083;-67
2022/02/28 00:52:57;;;;;;;24.55;12.98;;;;;;;-3.96;77.73;101792.66;1706047;81;20932;-67
2022/02/28 00:55:24;;;;;;;31.03;14.63;;;;;;;-3.97;77.76;101793.47;1708553;82;20923;-67
2022/02/28 00:57:50;;;;;;;30.92;12.78;;;;;;;-3.99;77.73;101789.97;1712631;82;21025;-67
2022/02/28 01:00:19;;;;;;;19.30;9.43;;;;;;;-4.00;77.73;101793.34;1680516;83;21669;-67
2022/02/28 01:02:48;;;;;;;19.52;9.20;;;;;;;-3.97;77.91;101790.05;1689477;83;20930;-67
2022/02/28 01:05:17;;;;;;;19.23;9.73;;;;;;;-3.96;77.96;101787.95;1676825;83;21050;-67
2022/02/28 01:07:44;;;;;;;17.17;10.65;;;;;;;-3.96;77.96;101796.48;1694600;83;21019;-67
2022/02/28 01:10:14;;;;;;;17.45;8.88;;;;;;;-3.96;77.98;101779.89;1682113;82;21559;-67
2022/02/28 01:12:42;;;;;;;19.75;9.70;;;;;;;-3.93;78.06;101785.13;1680856;82;21913;-67
2022/02/28 01:15:11;;;;;;;19.57;9.55;;;;;;;-3.90;78.12;101777.61;1671560;83;20922;-67
2022/02/28 01:17:39;;;;;;;19.67;11.20;;;;;;;-3.90;78.02;101776.33;1685705;83;20922;-66
2022/02/28 01:20:08;;;;;;;22.60;9.30;;;;;;;-3.91;78.07;101773.32;1681406;83;26624;-67
2022/02/28 01:22:35;;;;;;;19.87;8.70;;;;;;;-3.86;78.24;101782.06;1674713;83;21707;-67
2022/02/28 01:25:01;;;;;;;18.53;7.50;;;;;;;-3.80;78.24;101778.03;1680609;83;21126;-67
2022/02/28 01:27:31;;;;;;;22.00;9.23;;;;;;;-3.78;78.25;101768.37;1691088;83;21479;-67
2022/02/28 01:29:58;;;;;;;20.97;11.03;;;;;;;-3.77;78.25;101773.06;1688999;84;21028;-67
2022/02/28 01:32:25;;;;;;;22.67;10.63;;;;;;;-3.75;78.21;101767.22;1683979;84;21092;-67
2022/02/28 01:34:52;;;;;;;21.80;11.05;;;;;;;-3.75;78.34;101766.32;1680975;84;21629;-67
2022/02/28 01:37:19;;;;;;;29.67;12.60;;;;;;;-3.70;78.31;101762.30;1683099;84;22276;-67
2022/02/28 01:39:46;;;;;;;30.72;12.93;;;;;;;-3.67;78.34;101764.98;1687292;84;21001;-67
2022/02/28 01:42:15;;;;;;;30.90;13.83;;;;;;;-3.61;78.50;101755.05;1714416;82;21504;-68
2022/02/28 01:44:42;;;;;;;35.13;15.85;;;;;;;-3.54;78.55;101754.48;1692469;83;20981;-67
2022/02/28 01:47:10;;;;;;;30.48;15.98;;;;;;;-3.49;78.53;101753.01;1714576;83;21049;-67
2022/02/28 01:49:37;;;;;;;40.85;17.37;;;;;;;-3.44;78.63;101737.89;1712204;83;22450;-67
2022/02/28 01:52:05;;;;;;;41.50;18.27;;;;;;;-3.43;78.62;101743.05;1713065;82;20962;-66
2022/02/28 01:54:35;;;;;;;30.15;15.35;;;;;;;-3.41;78.75;101738.87;1712957;82;20911;-67
2022/02/28 01:57:02;;;;;;;43.25;17.65;;;;;;;-3.35;78.69;101739.95;1714631;83;20963;-67
2022/02/28 01:59:29;;;;;;;31.07;16.50;;;;;;;-3.34;78.66;101741.69;1712991;82;20942;-67
2022/02/28 02:01:56;;;;;;;34.93;16.77;;;;;;;-3.25;78.92;101739.50;1713502;82;21414;-67
2022/02/28 02:04:22;;;;;;;51.98;23.12;;;;;;;-3.22;78.78;101735.79;1711038;82;21629;-67
2022/02/28 02:06:49;;;;;;;62.17;26.87;;;;;;;-3.25;78.70;101735.29;1717784;82;21048;-67
2022/02/28 02:09:17;;;;;;;54.42;26.12;;;;;;;-3.28;78.67;101737.69;1718166;83;20974;-67
2022/02/28 02:11:44;;;;;;;61.85;26.42;;;;;;;-3.30;78.81;101743.58;1711813;82;21056;-67
2022/02/28 02:14:12;;;;;;;54.03;24.95;;;;;;;-3.29;78.96;101737.64;1700206;83;21085;-67
2022/02/28 02:16:40;;;;;;;43.02;22.75;;;;;;;-3.26;79.06;101736.08;1681490;84;20934;-67
2022/02/28 02:19:07;;;;;;;48.85;22.35;;;;;;;-3.24;79.05;101736.16;1715278;81;21005;-67
2022/02/28 02:21:33;;;;;;;53.57;22.47;;;;;;;-3.22;79.11;101740.91;1716277;82;21115;-67
2022/02/28 02:24:00;;;;;;;56.27;24.70;;;;;;;-3.20;79.12;101735.45;1718534;82;21596;-67
2022/02/28 02:26:27;;;;;;;61.55;26.12;;;;;;;-3.20;79.14;101732.91;1717561;82;21421;-67
2022/02/28 02:28:53;;;;;;;55.75;24.70;;;;;;;-3.18;79.19;101736.41;1722568;81;21569;-67
2022/02/28 02:31:20;;;;;;;56.93;26.10;;;;;;;-3.17;79.24;101733.02;1685512;83;20961;-67
2022/02/28 02:33:47;;;;;;;55.67;26.40;;;;;;;-3.17;79.28;101736.45;1684792;82;21004;-67
2022/02/28 02:36:18;;;;;;;68.10;27.45;;;;;;;-3.13;79.40;101727.25;1682168;84;21055;-67
2022/02/28 02:38:42;;;;;;;66.62;28.35;;;;;;;-3.09;79.46;101721.44;1653062;86;21100;-67
2022/02/28 02:41:09;;;;;;;72.20;30.32;;;;;;;-3.05;79.47;101720.77;1656384;85;21052;-67
2022/02/28 02:43:36;;;;;;;73.60;29.93;;;;;;;-3.01;79.55;101712.39;1689462;83;22501;-67
2022/02/28 02:46:04;;;;;;;68.22;30.88;;;;;;;-2.99;79.44;101715.02;1699875;83;20961;-67
2022/02/28 02:48:36;;;;;;;;;;;;;;;-3.00;79.41;101709.02;1690558;83;21871;-67
2022/02/28 02:51:03;;;;;;;73.17;31.95;;;;;;;-2.94;79.69;101715.67;1657718;85;21119;-67
2022/02/28 02:53:30;;;;;;;74.58;34.00;;;;;;;-2.92;79.59;101712.75;1721016;82;21554;-67
2022/02/28 02:55:57;;;;;;;75.20;33.77;;;;;;;-2.95;79.53;101702.41;1722534;82;20997;-67
2022/02/28 02:58:24;;;;;;;76.97;33.63;;;;;;;-3.00;79.46;101703.90;1721946;82;20903;-67
2022/02/28 03:00:53;;;;;;;92.20;38.28;;;;;;;-3.06;79.44;101708.77;1718967;82;21087;-67
2022/02/28 03:03:22;;;;;;;73.52;32.83;;;;;;;-3.09;79.63;101700.98;1721900;81;21076;-67
2022/02/28 03:05:51;;;;;;;89.03;32.93;;;;;;;-3.08;79.71;101702.75;1721471;81;21009;-67
2022/02/28 03:08:18;;;;;;;88.47;34.53;;;;;;;-3.15;79.54;101703.30;1721627;82;20953;-67
2022/02/28 03:10:45;;;;;;;87.15;36.10;;;;;;;-3.22;79.57;101715.34;1723429;82;21511;-67
2022/02/28 03:13:12;;;;;;;82.33;35.52;;;;;;;-3.28;79.58;101720.22;1721725;81;27169;-67
2022/02/28 03:15:39;;;;;;;84.05;35.33;;;;;;;-3.33;79.61;101720.43;1721479;81;21115;-67
2022/02/28 03:18:05;;;;;;;99.07;38.10;;;;;;;-3.38;79.73;101714.73;1723788;81;21079;-67
2022/02/28 03:20:32;;;;;;;88.27;36.73;;;;;;;-3.41;79.80;101722.28;1720513;82;20938;-67
2022/02/28 03:22:59;;;;;;;90.57;36.67;;;;;;;-3.45;79.89;101720.39;1720342;82;21005;-67
2022/02/28 03:25:26;;;;;;;76.40;33.48;;;;;;;-3.46;80.02;101722.48;1723687;81;21076;-67
2022/02/28 03:27:53;;;;;;;85.65;32.80;;;;;;;-3.45;79.99;101715.69;1723179;82;21475;-67
2022/02/28 03:30:19;;;;;;;83.33;33.90;;;;;;;-3.48;79.88;101713.88;1711927;83;20939;-67
2022/02/28 03:32:46;;;;;;;84.15;34.10;;;;;;;-3.51;79.97;101708.65;1715874;83;21044;-67
2022/02/28 03:35:13;;;;;;;81.80;33.10;;;;;;;-3.49;80.02;101705.77;1715554;83;21125;-67
2022/02/28 03:37:40;;;;;;;79.50;36.03;;;;;;;-3.50;79.96;101705.30;1714643;83;20978;-68
2022/02/28 03:40:09;;;;;;;89.17;40.20;;;;;;;-3.52;79.95;101706.91;1713611;83;21569;-67
2022/02/28 03:42:36;;;;;;;98.65;39.73;;;;;;;-3.52;80.02;101703.09;1714413;83;21001;-67
2022/02/28 03:45:04;;;;;;;83.58;35.73;;;;;;;-3.51;80.06;101704.81;1714908;82;21601;-65
2022/02/28 03:47:35;;;;;;;79.35;35.33;;;;;;;-3.49;80.19;101701.94;1719088;83;21072;-67
2022/02/28 03:50:02;;;;;;;90.67;34.88;;;;;;;-3.45;80.33;101706.34;1714280;83;20994;-67
2022/02/28 03:52:29;;;;;;;78.65;34.23;;;;;;;-3.39;80.38;101700.23;1708891;83;26751;-67
2022/02/28 03:54:55;;;;;;;86.65;37.67;;;;;;;-3.39;80.34;101701.52;1708996;83;21013;-67
2022/02/28 03:57:22;;;;;;;84.52;36.48;;;;;;;-3.38;80.27;101698.14;1717678;82;20958;-66
2022/02/28 03:59:49;;;;;;;84.93;37.67;;;;;;;-3.35;80.36;101696.53;1716299;82;20939;-67
2022/02/28 04:02:15;;;;;;;77.53;33.63;;;;;;;-3.37;80.22;101697.31;1713484;82;21017;-67
2022/02/28 04:04:42;;;;;;;80.40;33.10;;;;;;;-3.40;80.20;101694.64;1715595;83;21255;-67
2022/02/28 04:07:11;;;;;;;84.90;32.30;;;;;;;-3.40;80.35;101697.19;1712889;82;20951;-67
2022/02/28 04:09:39;;;;;;;79.32;30.95;;;;;;;-3.37;80.46;101688.38;1715378;82;21692;-67
2022/02/28 04:12:09;;;;;;;72.40;30.75;;;;;;;-3.31;80.61;101685.61;1713501;82;21014;-67
2022/02/28 04:14:37;;;;;;;68.67;29.98;;;;;;;-3.22;80.70;101688.52;1710623;82;21045;-66
2022/02/28 04:17:05;;;;;;;71.65;30.62;;;;;;;-3.17;80.66;101681.92;1716369;82;21429;-67
2022/02/28 04:19:32;;;;;;;73.30;32.85;;;;;;;-3.13;80.61;101680.38;1713909;82;20942;-67
2022/02/28 04:21:59;;;;;;;76.02;34.05;;;;;;;-3.12;80.67;101680.42;1714541;82;21005;-67
2022/02/28 04:24:26;;;;;;;66.07;28.15;;;;;;;-3.03;80.84;101680.78;1713009;83;20997;-67
2022/02/28 04:26:53;;;;;;;72.93;34.20;;;;;;;-2.98;80.78;101679.28;1706071;82;21080;-67
2022/02/28 04:29:20;;;;;;;86.63;34.15;;;;;;;-2.96;80.79;101690.45;1716829;82;21775;-67
2022/02/28 04:31:46;;;;;;;82.33;32.87;;;;;;;-2.96;80.74;101695.56;1716952;82;21037;-68
2022/02/28 04:34:14;;;;;;;61.65;27.93;;;;;;;-2.94;80.88;101696.88;1715522;80;20954;-67
2022/02/28 04:36:40;;;;;;;;;;;;;;;-2.92;80.89;101702.52;1717611;83;21013;-67
2022/02/28 04:39:07;;;;;;;61.35;25.85;;;;;;;-2.95;80.86;101694.73;1714293;82;20475;-67
2022/02/28 04:41:34;;;;;;;66.92;29.48;;;;;;;-2.94;80.98;101693.94;1714633;82;21434;-67
2022/02/28 04:44:01;;;;;;;68.57;28.77;;;;;;;-2.84;81.18;101699.41;1712962;82;21006;-67
2022/02/28 04:46:28;;;;;;;72.67;28.47;;;;;;;-2.78;81.10;101696.67;1709401;83;21508;-67
2022/02/28 04:48:54;;;;;;;68.33;27.42;;;;;;;-2.79;80.94;101700.46;1713597;83;20981;-67
2022/02/28 04:51:21;;;;;;;50.40;23.27;;;;;;;-2.85;80.90;101702.78;1714614;82;21053;-67
2022/02/28 04:53:48;;;;;;;40.77;21.57;;;;;;;-2.90;80.89;101708.13;1702674;83;22372;-68
2022/02/28 04:56:14;;;;;;;66.15;21.77;;;;;;;-2.95;80.96;101703.68;1699206;83;20990;-67
2022/02/28 04:58:41;;;;;;;58.23;23.18;;;;;;;-2.96;81.09;101703.23;1695251;83;21483;-67
2022/02/28 05:01:07;;;;;;;43.53;21.40;;;;;;;-2.95;81.10;101702.41;1682608;83;20966;-67
2022/02/28 05:03:37;;;;;;;46.40;21.93;;;;;;;-2.95;81.11;101715.19;1708234;83;20978;-67
2022/02/28 05:06:04;;;;;;;41.23;20.20;;;;;;;-2.93;81.13;101710.14;1711394;83;21899;-67
2022/02/28 05:08:30;;;;;;;52.03;21.43;;;;;;;-2.93;81.19;101707.59;1668758;84;21077;-67
2022/02/28 05:10:57;;;;;;;48.40;21.30;;;;;;;-2.95;81.05;101704.96;1692132;83;21358;-68
2022/02/28 05:13:25;;;;;;;46.13;20.47;;;;;;;-2.99;80.99;101700.55;1710522;83;20998;-67
2022/02/28 05:15:52;;;;;;;42.62;21.55;;;;;;;-3.02;81.03;101700.44;1707678;83;21014;-67
2022/02/28 05:18:18;;;;;;;44.70;22.77;;;;;;;-2.98;81.34;101712.51;1705359;82;22226;-67
2022/02/28 05:20:45;;;;;;;42.43;20.92;;;;;;;-2.95;81.41;101711.34;1710094;82;20958;-67
2022/02/28 05:23:12;;;;;;;48.00;21.73;;;;;;;-2.97;81.27;101716.83;1715072;82;21026;-67
2022/02/28 05:25:38;;;;;;;50.10;20.95;;;;;;;-3.00;81.26;101719.23;1714155;83;21058;-67
2022/02/28 05:28:08;;;;;;;50.37;21.90;;;;;;;-3.02;81.34;101723.44;1708799;82;21160;-68
2022/02/28 05:30:35;;;;;;;46.13;23.20;;;;;;;-3.02;81.42;101723.44;1710552;82;21642;-68
2022/02/28 05:33:02;;;;;;;51.33;23.73;;;;;;;-2.99;81.56;101723.56;1706808;82;21029;-67
2022/02/28 05:35:28;;;;;;;51.13;25.67;;;;;;;-2.90;81.61;101727.29;1708498;82;20974;-68
2022/02/28 05:37:55;;;;;;;51.77;24.43;;;;;;;-2.89;81.52;101721.36;1666834;84;21085;-68
2022/02/28 05:40:22;;;;;;;53.70;25.32;;;;;;;-2.88;81.55;101724.40;1658513;84;21353;-67
2022/02/28 05:42:49;;;;;;;51.70;23.55;;;;;;;-2.89;81.44;101721.36;1664140;84;22191;-67
2022/02/28 05:45:16;;;;;;;51.05;22.82;;;;;;;-2.90;81.46;101729.84;1677069;84;21027;-67
2022/02/28 05:47:43;;;;;;;;;;;;;;;-2.90;81.54;101734.95;1671844;84;21026;-67
2022/02/28 05:50:11;;;;;;;50.00;23.62;;;;;;;-2.87;81.69;101732.52;1680924;83;20252;-67
2022/02/28 05:52:38;;;;;;;51.83;24.35;;;;;;;-2.83;81.77;101729.26;1675302;83;20965;-68
2022/02/28 05:55:07;;;;;;;48.08;23.60;;;;;;;-2.76;81.88;101731.26;1670339;84;21109;-68
2022/02/28 05:57:36;;;;;;;51.42;23.55;;;;;;;-2.65;81.92;101740.62;1661602;83;21058;-67
2022/02/28 06:00:08;;;;;;;52.58;23.05;;;;;;;-2.59;81.87;101734.05;1663165;83;20983;-67
2022/02/28 06:02:34;;;;;;;57.10;24.02;;;;;;;-2.52;81.93;101739.88;1675409;83;21036;-67
2022/02/28 06:05:01;;;;;;;46.83;21.57;;;;;;;-2.45;81.83;101735.00;1647197;85;21073;-67
2022/02/28 06:07:32;;;;;;;53.45;24.70;;;;;;;-2.43;81.76;101749.59;1663468;84;21199;-67
2022/02/28 06:09:59;;;;;;;51.25;23.10;;;;;;;-2.42;81.63;101748.77;1681205;83;21015;-67
2022/02/28 06:12:25;;;;;;;52.27;23.75;;;;;;;-2.38;81.71;101752.30;1695082;84;21014;-67
2022/02/28 06:14:52;;;;;;;47.08;23.92;;;;;;;-2.31;81.84;101754.30;1678830;84;21013;-67
2022/02/28 06:17:19;;;;;;;50.38;24.60;;;;;;;-2.17;82.21;101751.84;1675859;83;21016;-66
2022/02/28 06:19:48;;;;;;;51.98;23.92;;;;;;;-1.94;82.20;101755.65;1671710;84;21147;-67
2022/02/28 06:22:15;;;;;;;55.40;24.82;;;;;;;-1.49;82.44;101758.08;1672062;83;21064;-67
2022/02/28 06:24:42;;;;;;;49.50;24.52;;;;;;;-0.99;82.09;101746.09;1666602;84;21684;-68
2022/02/28 06:27:09;;;;;;;44.97;22.00;;;;;;;-0.52;81.78;101751.84;1678855;84;20933;-67
2022/02/28 06:29:35;;;;;;;45.98;23.87;;;;;;;-0.13;81.31;101756.42;1673560;83;21025;-67
2022/02/28 06:32:03;;;;;;;39.15;21.80;;;;;;;0.35;81.57;101753.48;1657839;84;21067;-67
2022/02/28 06:34:32;;;;;;;49.38;27.07;;;;;;;0.95;81.66;101753.30;1671476;84;21025;-65
2022/02/28 06:36:59;;;;;;;50.88;26.82;;;;;;;1.54;81.30;101760.67;1670955;84;20954;-67
2022/02/28 06:39:27;;;;;;;52.62;27.58;;;;;;;1.93;80.57;101755.54;1665190;84;21607;-70
2022/02/28 06:41:55;;;;;;;62.70;28.35;;;;;;;2.20;79.85;101752.63;1659472;84;20985;-66
2022/02/28 06:44:23;;;;;;;49.85;25.60;;;;;;;2.48;79.37;101754.87;1674320;84;21974;-67
2022/02/28 06:46:52;;;;;;;54.30;28.47;;;;;;;2.83;79.95;101757.66;1662403;85;21092;-67
2022/02/28 06:49:18;;;;;;;57.98;28.32;;;;;;;3.40;80.33;101757.69;1671703;84;20996;-67
2022/02/28 06:51:45;;;;;;;39.58;19.10;;;;;;;3.80;79.90;101758.66;1671957;85;21035;-69
2022/02/28 06:54:12;;;;;;;41.42;23.27;;;;;;;3.84;79.29;101757.01;1657146;86;21505;-68
2022/02/28 06:56:39;;;;;;;47.57;23.97;;;;;;;3.86;79.26;101764.77;1678795;84;21405;-66
2022/02/28 06:59:05;;;;;;;50.10;21.63;;;;;;;3.97;79.42;101765.77;1666876;84;21056;-67
2022/02/28 07:01:35;;;;;;;42.17;22.30;;;;;;;4.02;79.09;101769.28;1669394;85;21511;-67
2022/02/28 07:04:03;;;;;;;45.92;21.60;;;;;;;4.03;78.95;101767.12;1640401;84;21216;-65
2022/02/28 07:06:30;;;;;;;32.83;20.80;;;;;;;3.99;78.88;101777.00;1673754;85;21025;-66
2022/02/28 07:08:57;;;;;;;;;;;;;;;3.99;78.78;101778.30;1659316;85;22433;-66
2022/02/28 07:11:25;;;;;;;21.93;14.63;;;;;;;4.08;78.88;101777.11;1671863;84;20193;-67
2022/02/28 07:13:53;;;;;;;36.35;25.50;;;;;;;4.12;79.04;101777.60;1644074;86;20961;-67
2022/02/28 07:16:21;;;;;;;35.98;22.48;;;;;;;4.07;79.54;101783.14;1678589;85;21677;-67
2022/02/28 07:18:48;;;;;;;44.43;20.50;;;;;;;4.23;79.83;101782.48;1672954;84;21042;-67
2022/02/28 07:21:15;;;;;;;28.00;13.90;;;;;;;4.42;79.85;101775.77;1663402;84;21690;-67
2022/02/28 07:23:43;;;;;;;23.02;12.95;;;;;;;4.61;80.06;101777.27;1672374;84;21056;-67
2022/02/28 07:26:10;;;;;;;19.20;10.93;;;;;;;4.58;79.87;101776.81;1671991;85;21033;-66
2022/02/28 07:28:37;;;;;;;25.00;13.07;;;;;;;4.48;80.12;101774.97;1680353;84;20934;-66
2022/02/28 07:31:04;;;;;;;26.80;18.67;;;;;;;4.45;80.25;101780.11;1675984;84;27214;-66
2022/02/28 07:33:31;;;;;;;22.87;15.40;;;;;;;4.21;80.21;101789.34;1670590;84;21201;-66
2022/02/28 07:35:59;;;;;;;22.65;13.40;;;;;;;4.11;80.61;101784.89;1647319;85;20970;-66
2022/02/28 07:38:26;;;;;;;28.17;16.50;;;;;;;4.04;81.16;101796.03;1669383;84;21583;-66
2022/02/28 07:40:52;;;;;;;23.18;15.23;;;;;;;3.94;80.93;101786.41;1669306;84;21021;-66
2022/02/28 07:43:19;;;;;;;21.97;13.70;;;;;;;3.78;80.79;101791.78;1665596;84;21034;-66
2022/02/28 07:45:46;;;;;;;19.02;10.68;;;;;;;3.75;81.36;101793.03;1667641;84;21503;-66
2022/02/28 07:48:13;;;;;;;11.78;6.50;;;;;;;3.67;81.34;101787.78;1662837;85;21025;-66
2022/02/28 07:51:23;;;;;;;8.10;2.75;;;;;;;3.61;81.31;101795.42;1877466;75;22707;-65
2022/02/28 07:53:50;;;;;;;3.27;1.15;;;;;;;3.40;81.27;101791.25;1848350;77;21021;-66
2022/02/28 07:56:17;;;;;;;2.80;1.77;;;;;;;3.20;81.01;101787.94;1856536;77;21073;-66
2022/02/28 07:58:44;;;;;;;5.62;2.15;;;;;;;3.06;81.02;101798.03;1851361;77;20968;-66
2022/02/28 08:01:11;;;;;;;4.33;1.55;;;;;;;3.04;81.63;101798.84;1833882;77;20981;-65
2022/02/28 08:03:39;;;;;;;6.25;2.72;;;;;;;3.10;81.40;101787.33;1840338;77;20941;-65
2022/02/28 08:06:05;;;;;;;3.92;1.37;;;;;;;3.00;81.28;101786.75;1861154;77;21592;-66
2022/02/28 08:08:32;;;;;;;5.87;1.37;;;;;;;2.99;81.50;101786.28;1854272;77;21539;-66
2022/02/28 08:11:03;;;;;;;1.80;1.17;;;;;;;2.99;81.42;101783.27;1855267;77;21260;-65
2022/02/28 08:13:30;;;;;;;4.25;1.55;;;;;;;3.00;81.22;101791.91;1850260;77;21040;-64
2022/02/28 08:15:59;;;;;;;7.78;2.90;;;;;;;2.95;81.33;101793.54;1856988;77;21056;-65
2022/02/28 08:18:25;;;;;;;8.35;2.37;;;;;;;2.93;81.19;101792.64;1844376;77;21080;-66
2022/02/28 08:20:52;;;;;;;7.47;1.63;;;;;;;2.97;81.12;101787.96;1848366;77;21653;-66
2022/02/28 08:23:19;;;;;;;7.10;2.25;;;;;;;2.97;81.12;101787.96;1849221;77;21408;-65
2022/02/28 08:25:46;;;;;;;9.90;4.07;;;;;;;3.03;81.39;101794.54;1841944;77;21045;-67
2022/02/28 08:28:13;;;;;;;9.45;4.28;;;;;;;3.06;81.20;101794.59;1852238;77;21005;-66
2022/02/28 08:30:40;;;;;;;6.17;2.30;;;;;;;3.08;81.20;101796.36;1826564;77;20979;-66
2022/02/28 08:33:07;;;;;;;5.12;3.00;;;;;;;3.12;81.07;101795.98;1841796;76;21204;-66
2022/02/28 08:35:34;;;;;;;9.95;4.78;;;;;;;3.21;81.33;101799.98;1844648;77;21623;-66
2022/02/28 08:38:01;;;;;;;15.03;6.03;;;;;;;3.28;80.87;101798.39;1847380;77;21016;-66
2022/02/28 08:40:27;;;;;;;12.10;7.00;;;;;;;3.22;80.64;101788.84;1861358;76;21008;-66
2022/02/28 08:42:54;;;;;;;18.05;8.23;;;;;;;3.22;80.67;101796.58;1865572;75;21173;-66
2022/02/28 08:45:22;;;;;;;15.20;8.18;;;;;;;3.24;80.71;101796.16;1861439;76;22215;-66
2022/02/28 08:47:51;;;;;;;20.77;8.98;;;;;;;3.26;80.63;101793.19;1868399;75;21074;-66
2022/02/28 08:50:19;;;;;;;18.57;8.85;;;;;;;3.25;80.16;101799.21;1844941;77;21032;-66
2022/02/28 08:52:46;;;;;;;13.20;6.62;;;;;;;3.18;80.24;101798.65;1841629;76;20924;-66
2022/02/28 08:55:13;;;;;;;10.18;5.30;;;;;;;3.10;79.95;101791.20;1844468;77;20930;-66
2022/02/28 08:57:41;;;;;;;9.63;5.60;;;;;;;3.03;80.00;101793.25;1841715;77;22211;-65
2022/02/28 09:00:10;;;;;;;12.60;5.78;;;;;;;3.07;80.17;101802.77;1837117;76;20949;-65
2022/02/28 09:02:39;;;;;;;12.63;5.47;;;;;;;3.07;80.14;101793.73;1837115;76;21511;-65
2022/02/28 09:05:07;;;;;;;18.17;5.83;;;;;;;3.08;79.90;101800.63;1845178;76;20992;-65
2022/02/28 09:07:35;;;;;;;15.35;6.33;;;;;;;2.97;79.49;101802.16;1846950;77;20992;-65
2022/02/28 09:10:05;;;;;;;21.73;8.10;;;;;;;2.77;79.08;101806.54;1835111;77;21111;-65
2022/02/28 09:12:32;;;;;;;16.52;6.78;;;;;;;2.57;79.52;101811.76;1833808;76;20965;-66
2022/02/28 09:14:59;;;;;;;15.30;5.60;;;;;;;2.67;80.11;101805.95;1826712;76;20942;-65
2022/02/28 09:17:25;;;;;;;13.22;5.78;;;;;;;2.79;80.12;101794.55;1833375;76;21076;-65
2022/02/28 09:19:52;;;;;;;9.38;5.97;;;;;;;2.97;80.34;101798.28;1828983;77;20935;-65
2022/02/28 09:22:19;;;;;;;13.08;4.55;;;;;;;3.12;80.16;101805.01;1834308;76;21080;-65
2022/02/28 09:24:46;;;;;;;11.57;4.72;;;;;;;3.21;79.76;101800.41;1825668;77;20976;-65
2022/02/28 09:27:13;;;;;;;14.10;4.78;;;;;;;3.26;79.33;101803.52;1840738;76;20962;-65
2022/02/28 09:29:40;;;;;;;8.85;4.85;;;;;;;3.26;79.37;101798.35;1844601;76;20989;-65
2022/02/28 09:32:08;;;;;;;7.70;4.60;;;;;;;3.31;79.29;101801.88;1812593;76;21041;-65
2022/02/28 09:34:35;;;;;;;10.48;5.33;;;;;;;3.36;79.15;101803.22;1803723;77;21148;-65
2022/02/28 09:37:03;;;;;;;8.03;4.25;;;;;;;3.40;79.11;101813.20;1832680;77;20969;-65
2022/02/28 09:39:31;;;;;;;7.08;3.58;;;;;;;3.40;78.82;101801.16;1837995;77;21005;-65
2022/02/28 09:41:59;;;;;;;8.03;4.20;;;;;;;3.38;78.11;101807.14;1833471;76;21527;-68
2022/02/28 09:44:27;;;;;;;8.23;4.28;;;;;;;3.42;78.45;101801.16;1838213;76;20984;-65
2022/02/28 09:46:55;;;;;;;5.33;2.85;;;;;;;3.50;78.38;101804.73;1841962;76;21908;-65
2022/02/28 09:49:21;;;;;;;4.97;2.95;;;;;;;3.54;77.93;101809.98;1847304;76;21017;-65
2022/02/28 09:51:48;;;;;;;6.55;3.70;;;;;;;3.50;77.48;101804.73;1860191;75;20965;-65
2022/02/28 09:54:15;;;;;;;8.33;3.95;;;;;;;3.47;77.77;101812.44;1854896;76;21067;-65
2022/02/28 09:56:42;;;;;;;8.23;3.60;;;;;;;3.51;77.96;101816.81;1844816;76;21530;-65
2022/02/28 09:59:09;;;;;;;10.00;4.67;;;;;;;3.59;77.90;101815.22;1851904;76;21643;-65
2022/02/28 10:01:36;;;;;;;10.50;4.00;;;;;;;3.69;78.09;101810.61;1855248;76;21584;-65
2022/02/28 10:04:05;;;;;;;8.83;3.77;;;;;;;3.78;78.11;101810.77;1854737;76;21460;-65
2022/02/28 10:06:32;;;;;;;6.00;3.67;;;;;;;3.85;77.59;101813.43;1827599;78;20994;-66
2022/02/28 10:09:07;;;;;;;6.28;2.92;;;;;;;3.84;77.29;101815.55;1822334;78;21081;-69
2022/02/28 10:11:42;;;;;;;7.10;3.27;;;;;;;3.86;77.37;101813.86;1790368;79;22276;-66
2022/02/28 10:14:11;;;;;;;17.85;3.60;;;;;;;3.93;77.45;101816.99;1819996;77;21476;-66
2022/02/28 10:16:45;;;;;;;6.85;3.67;;;;;;;4.02;77.46;101808.06;1789072;79;21060;-66
2022/02/28 10:19:15;;;;;;;9.13;3.55;;;;;;;4.07;77.26;101815.45;1793477;79;21006;-67
2022/02/28 10:21:53;;;;;;;7.75;3.90;;;;;;;4.08;76.90;101810.72;1789709;79;20950;-66
2022/02/28 10:24:36;;;;;;;11.55;3.87;;;;;;;4.04;76.70;101818.86;1795146;78;26506;-67
2022/02/28 10:27:06;;;;;;;24.95;5.20;;;;;;;4.00;76.38;101817.50;1815819;78;20978;-66
2022/02/28 10:29:39;;;;;;;12.85;4.10;;;;;;;3.97;76.56;101821.34;1804522;78;20959;-66
2022/02/28 10:32:11;;;;;;;8.70;4.45;;;;;;;4.02;76.10;101819.69;1795500;79;21067;-66
2022/02/28 10:37:25;;;;;;;15.80;5.10;;;;;;;4.16;76.44;101815.56;1816196;78;21542;-67
2022/02/28 10:40:02;;;;;;;9.83;4.35;;;;;;;4.23;76.02;101816.09;1783045;80;20999;-66
2022/02/28 10:42:47;;;;;;;17.23;3.90;;;;;;;4.23;75.09;101821.27;1799370;78;24994;-66
2022/02/28 10:45:28;;;;;;;9.85;4.05;;;;;;;4.14;74.51;101821.13;1784024;80;21024;-66
2022/02/28 10:47:54;;;;;;;4.62;2.87;;;;;;;4.09;74.51;101821.92;1787421;78;20949;-66
2022/02/28 10:50:41;;;;;;;14.70;4.22;;;;;;;4.12;74.98;101821.55;1791565;78;21240;-66
2022/02/28 10:53:21;;;;;;;8.70;4.15;;;;;;;4.15;73.81;101825.47;1792926;79;20969;-66
2022/02/28 10:55:51;;;;;;;8.50;3.37;;;;;;;4.11;73.60;101822.81;1781082;79;20903;-66
2022/02/28 10:58:24;;;;;;;6.70;3.52;;;;;;;4.13;73.92;101824.58;1819079;78;20940;-66
2022/02/28 11:01:06;;;;;;;6.25;4.12;;;;;;;4.12;73.16;101812.51;1812651;78;20997;-66
2022/02/28 11:03:51;;;;;;;5.45;3.22;;;;;;;4.09;73.04;101820.63;1807032;78;20997;-65
2022/02/28 11:06:22;;;;;;;10.25;3.65;;;;;;;4.18;73.58;101816.89;1775248;80;20981;-66
2022/02/28 11:08:50;;;;;;;7.10;3.45;;;;;;;4.22;72.34;101813.48;1762811;79;21134;-66
2022/02/28 11:11:18;;;;;;;12.47;3.85;;;;;;;4.14;72.88;101820.27;1812152;78;21252;-65
2022/02/28 11:13:46;;;;;;;7.73;3.03;;;;;;;4.18;72.95;101822.92;1769586;79;21050;-66
2022/02/28 11:16:13;;;;;;;5.55;3.05;;;;;;;4.23;72.78;101818.68;1810822;77;21622;-65
2022/02/28 11:18:43;;;;;;;6.50;3.25;;;;;;;4.30;72.76;101819.61;1780615;80;21048;-66
2022/02/28 11:21:12;;;;;;;5.78;3.50;;;;;;;4.40;72.73;101820.61;1814722;78;21038;-65
2022/02/28 11:23:48;;;;;;;5.37;3.25;;;;;;;4.46;72.74;101815.50;1798625;78;21513;-66
2022/02/28 11:26:27;;;;;;;8.13;3.60;;;;;;;4.50;72.61;101810.78;1815011;78;21226;-65